Bay City, TX

3:59 PM CST on December 20, 2014 (GMT -0600)
Wharton Regional | Change Station
CLOSE
Current Station
Airport
Location: Wharton,
Elevation: 102 ft
Nearby Weather Stations

Elev 102 ft 29.25 °N, 96.15 °W | Updated 24 minutes ago

Overcast
Overcast
54 °F
Feels Like 54 °F
N
5
Wind Variable Wind from NNE

Today
High -- | Low -- °F
--% Chance of Precip.
Yesterday
High -- | Low -- °F
Precip. -- in
7:12 AM 5:30 PM
Waning Crescent, 2% visible
Pressure 30.15 in
Visibility 10.0 miles
Clouds Overcast 1200 ft
Dew Point 50 °F
Humidity 87%
Rainfall 0.00 in
Snow Depth Not available.
UV 0 out of 12
Pollen 7.70 out of 12
Air Quality Not available.
Flu Activity Not available.
METAR KARM 202135Z AUTO 02004KT 10SM OVC012 12/10 A3015 RMK AO2 T01210100

More Conditions Fewer Conditions

Pressure 30.15 in
Visibility 10.0 miles
Clouds Overcast 1200 ft
Dew Point 50 °F
Humidity 87%
Rainfall 0.00 in
Snow Depth Not available.
UV 0 out of 12
Pollen 7.70 out of 12
Air Quality Not available.
Flu Activity Not available.
METAR KARM 202135Z AUTO 02004KT 10SM OVC012 12/10 A3015 RMK AO2 T01210100

More Conditions Fewer Conditions

10-Day Weather Forecast

Almanac

Astronomy

Dec. 20, 2014 Rise Set
Actual Time
Civil Twilight
Nautical Twilight
Astronomical Twilight
Moon
Length of Visible Light
Length of Day
Tomorrow will be .
, % of the Moon is Illuminated

Today's Extremes

State Highs State Lows

Community

WunderPhotos

Upload Photos

1,779,286 photos uploaded!

WunderBlogs® & News

Nearby

Air Quality

  Air Quality AQ Index Pollutant
Not available.

Snow Depth

Station Depth Elevation

Earthquake Activity

City Distance Mag. Time & Date
Minimum magnitude displayed is 2.5.

Coastal Water Temperatures

Place Temperature

Nearby Weather Stations